Time;durP1;ratioP1;P1;durP2;ratioP2;P2;SDS_P1;SDS_P2;PMS_P1;PMS_P2;Temp;Humidity;BMP_temperature;BMP_pressure;BME280_temperature;BME280_humidity;BME280_pressure;Samples;Min_cycle;Max_cycle;Signal;HPM_P1;HPM_P2
2023/03/23 00:00:27;;;;;;;0.00;0.00;;;;;;;8.62;100.00;98419.50;4962264;28;20030;-73
2023/03/23 00:03:00;;;;;;;0.00;0.00;;;;;;;8.38;100.00;98393.22;4973579;28;20022;-77
2023/03/23 00:05:25;;;;;;;0.00;0.00;;;;;;;8.37;100.00;98404.41;4957856;28;20058;-74
2023/03/23 00:07:51;;;;;;;0.00;0.00;;;;;;;8.28;100.00;98414.38;4968702;28;20061;-75
2023/03/23 00:10:24;;;;;;;0.00;0.00;;;;;;;8.30;100.00;98440.19;4934496;28;20077;-76
2023/03/23 00:12:52;;;;;;;0.00;0.00;;;;;;;8.19;100.00;98412.34;4965417;28;20030;-75
2023/03/23 00:15:17;;;;;;;0.00;0.00;;;;;;;8.15;100.00;98424.16;4955611;28;20030;-75
2023/03/23 00:18:04;;;;;;;0.00;0.00;;;;;;;8.04;100.00;98448.00;4965134;28;20037;-76
2023/03/23 00:20:43;;;;;;;0.00;0.00;;;;;;;8.02;100.00;98455.66;4986439;28;20045;-76
2023/03/23 00:23:18;;;;;;;0.00;0.00;;;;;;;7.93;100.00;98469.13;4965670;28;20070;-78
2023/03/23 00:25:47;;;;;;;0.00;0.00;;;;;;;7.92;100.00;98442.22;4956357;28;20053;-75
2023/03/23 00:28:14;;;;;;;0.00;0.00;;;;;;;7.86;100.00;98453.16;4963902;28;20503;-77
2023/03/23 00:30:41;;;;;;;0.00;0.00;;;;;;;7.75;100.00;98445.47;4987618;28;20023;-76
2023/03/23 00:33:12;;;;;;;0.00;0.00;;;;;;;7.83;100.00;98464.66;4959183;28;20076;-76
2023/03/23 00:35:38;;;;;;;0.00;0.00;;;;;;;7.74;100.00;98466.44;4941841;28;20022;-78
2023/03/23 00:38:04;;;;;;;0.00;0.00;;;;;;;7.64;100.00;98444.81;4967406;28;20050;-75
2023/03/23 00:40:30;;;;;;;0.10;0.10;;;;;;;7.55;100.00;98441.13;4989556;28;20578;-77
2023/03/23 00:43:17;;;;;;;0.00;0.00;;;;;;;7.68;100.00;98438.50;4974608;28;20034;-76
2023/03/23 00:45:54;;;;;;;0.00;0.00;;;;;;;7.70;100.00;98470.84;4976015;28;20054;-75
2023/03/23 00:48:44;;;;;;;0.00;0.00;;;;;;;7.67;100.00;98466.00;4969997;28;20038;-75
2023/03/23 00:51:18;;;;;;;0.00;0.00;;;;;;;7.57;100.00;98460.69;4975262;28;20057;-75
2023/03/23 00:53:45;;;;;;;0.00;0.00;;;;;;;7.54;100.00;98456.66;4953427;28;20038;-76
2023/03/23 00:56:13;;;;;;;0.00;0.00;;;;;;;7.55;100.00;98512.69;4979671;28;20125;-75
2023/03/23 00:58:48;;;;;;;0.03;0.03;;;;;;;7.48;100.00;98436.88;4972091;28;20027;-75
2023/03/23 01:01:16;;;;;;;0.05;0.05;;;;;;;7.51;100.00;98457.25;4968915;28;20030;-75
2023/03/23 01:03:45;;;;;;;0.00;0.00;;;;;;;7.54;100.00;98466.72;4972509;28;20069;-78
2023/03/23 01:06:14;;;;;;;0.00;0.00;;;;;;;7.55;100.00;98500.97;4962173;28;20041;-77
2023/03/23 01:08:45;;;;;;;0.00;0.00;;;;;;;7.48;100.00;98464.06;4957368;28;20022;-77
2023/03/23 01:11:16;;;;;;;0.00;0.00;;;;;;;7.55;100.00;98463.72;4984157;28;20038;-75
2023/03/23 01:13:45;;;;;;;0.05;0.05;;;;;;;7.46;100.00;98487.22;4972439;28;20035;-76
2023/03/23 01:16:11;;;;;;;0.00;0.00;;;;;;;7.40;100.00;98459.28;4987575;28;20469;-76
2023/03/23 01:18:46;;;;;;;0.00;0.00;;;;;;;7.37;100.00;98451.72;4970316;28;20037;-75
2023/03/23 01:21:20;;;;;;;0.00;0.00;;;;;;;7.45;100.00;98480.97;4956764;28;20031;-76
2023/03/23 01:23:46;;;;;;;0.00;0.00;;;;;;;7.42;100.00;98475.31;4974243;28;20022;-76
2023/03/23 01:26:21;;;;;;;0.00;0.00;;;;;;;7.33;100.00;98489.56;4972448;28;20042;-78
2023/03/23 01:28:48;;;;;;;0.00;0.00;;;;;;;7.31;100.00;98471.91;4995762;28;20081;-74
2023/03/23 01:31:26;;;;;;;0.00;0.00;;;;;;;7.42;100.00;98481.56;4977874;28;20153;-75
2023/03/23 01:33:52;;;;;;;0.00;0.00;;;;;;;7.37;100.00;98478.91;4999530;28;20031;-75
2023/03/23 01:36:20;;;;;;;0.00;0.00;;;;;;;7.24;100.00;98468.75;4998154;28;20552;-75
2023/03/23 01:38:48;;;;;;;0.00;0.00;;;;;;;7.19;100.00;98471.53;4975879;28;20023;-76
2023/03/23 01:41:14;;;;;;;0.00;0.00;;;;;;;7.27;100.00;98484.47;4950386;28;20050;-73
2023/03/23 01:44:16;;;;;;;0.00;0.00;;;;;;;7.26;100.00;98489.13;4993848;28;20065;-76
2023/03/23 01:46:43;;;;;;;0.10;0.10;;;;;;;7.20;100.00;98497.63;4994603;28;20145;-75
2023/03/23 01:49:13;;;;;;;0.00;0.00;;;;;;;7.11;100.00;98498.28;5007697;28;20038;-74
2023/03/23 01:52:07;;;;;;;0.00;0.00;;;;;;;7.11;100.00;98498.28;4989573;28;20105;-73
2023/03/23 01:54:36;;;;;;;0.10;0.10;;;;;;;7.06;100.00;98490.16;4998739;28;20034;-73
2023/03/23 01:57:19;;;;;;;0.00;0.00;;;;;;;7.13;100.00;98506.13;4975805;28;20491;-76
2023/03/23 01:59:49;;;;;;;0.00;0.00;;;;;;;7.10;100.00;98491.22;4981420;28;20040;-72
2023/03/23 02:02:15;;;;;;;0.00;0.00;;;;;;;7.07;100.00;98486.34;4978666;28;20132;-73
2023/03/23 02:04:42;;;;;;;0.00;0.00;;;;;;;7.08;100.00;98496.13;4997628;28;20026;-72
2023/03/23 02:07:11;;;;;;;0.00;0.00;;;;;;;7.08;100.00;98495.31;4967255;28;20396;-74
2023/03/23 02:09:36;;;;;;;0.00;0.00;;;;;;;7.02;100.00;98483.69;5000704;28;20369;-73
2023/03/23 02:12:02;;;;;;;0.00;0.00;;;;;;;7.07;100.00;98486.34;4992087;28;20021;-73
2023/03/23 02:14:28;;;;;;;0.00;0.00;;;;;;;7.00;100.00;98491.34;4987669;28;20025;-73
2023/03/23 02:17:07;;;;;;;0.00;0.00;;;;;;;7.01;100.00;98490.25;5005904;28;20533;-72
2023/03/23 02:19:58;;;;;;;0.00;0.00;;;;;;;7.07;100.00;98486.34;5000917;28;20037;-72
2023/03/23 02:22:33;;;;;;;0.00;0.00;;;;;;;7.08;100.00;98493.41;4973747;28;20036;-73
2023/03/23 02:25:12;;;;;;;0.00;0.00;;;;;;;7.06;100.00;98495.59;4991783;28;20380;-73
2023/03/23 02:27:44;;;;;;;0.00;0.00;;;;;;;7.10;100.00;98501.28;5002014;28;20060;-73
2023/03/23 02:30:42;;;;;;;0.00;0.00;;;;;;;7.08;100.00;98496.13;4987854;28;20480;-73
2023/03/23 02:33:53;;;;;;;0.00;0.00;;;;;;;7.07;100.00;98497.22;4934155;28;20080;-72
2023/03/23 02:36:33;;;;;;;0.10;0.10;;;;;;;7.09;100.00;98505.09;4984020;28;20026;-73
2023/03/23 02:39:11;;;;;;;0.00;0.00;;;;;;;7.06;100.00;98495.59;4988593;28;20049;-72
2023/03/23 02:41:46;;;;;;;0.00;0.00;;;;;;;7.06;100.00;98511.91;4984482;28;20025;-72
2023/03/23 02:44:14;;;;;;;0.00;0.00;;;;;;;7.02;100.00;98496.47;4976692;28;20073;-73
2023/03/23 02:46:42;;;;;;;0.00;0.00;;;;;;;6.99;100.00;98501.41;4963532;28;20480;-72
2023/03/23 02:49:11;;;;;;;0.00;0.00;;;;;;;7.03;100.00;98492.66;4981050;28;20026;-73
2023/03/23 02:51:37;;;;;;;0.00;0.00;;;;;;;6.97;100.00;98489.19;4963510;28;20465;-73
2023/03/23 02:54:05;;;;;;;0.00;0.00;;;;;;;6.91;100.00;98498.50;4952581;28;20026;-73
2023/03/23 02:56:32;;;;;;;0.00;0.00;;;;;;;6.86;100.00;98491.19;4972271;28;20128;-74
2023/03/23 02:58:59;;;;;;;0.00;0.00;;;;;;;6.95;100.00;98499.53;4951791;28;21212;-73
2023/03/23 03:01:33;;;;;;;0.00;0.00;;;;;;;6.98;100.00;98504.41;4976196;28;20034;-73
2023/03/23 03:04:06;;;;;;;0.00;0.00;;;;;;;6.93;100.00;98524.28;4966579;28;20049;-73
2023/03/23 03:06:54;;;;;;;0.00;0.00;;;;;;;6.89;100.00;98522.44;4971677;28;20038;-73
2023/03/23 03:09:40;;;;;;;0.10;0.10;;;;;;;6.92;100.00;98516.41;4968444;28;20026;-75
2023/03/23 03:12:15;;;;;;;0.00;0.00;;;;;;;6.93;100.00;98524.28;4975003;28;20499;-73
2023/03/23 03:15:33;;;;;;;0.00;0.00;;;;;;;6.93;100.00;98515.31;4968749;28;20383;-73
2023/03/23 03:18:07;;;;;;;0.00;0.00;;;;;;;6.90;99.76;98522.13;4918046;29;20038;-73
2023/03/23 03:20:37;;;;;;;0.00;0.00;;;;;;;6.96;99.19;98518.25;4910610;29;20027;-73
2023/03/23 03:23:04;;;;;;;0.00;0.00;;;;;;;6.96;99.06;98523.69;4949162;28;20038;-73
2023/03/23 03:25:31;;;;;;;0.00;0.00;;;;;;;6.90;99.51;98524.06;4951866;28;20138;-73
2023/03/23 03:27:56;;;;;;;0.00;0.00;;;;;;;6.90;99.36;98524.06;4955653;28;20022;-73
2023/03/23 03:30:28;;;;;;;0.00;0.00;;;;;;;6.87;99.97;98508.34;4979425;28;20405;-72
2023/03/23 03:32:54;;;;;;;0.00;0.00;;;;;;;6.92;100.00;98521.84;4977330;28;20018;-72
2023/03/23 03:35:24;;;;;;;0.00;0.00;;;;;;;6.94;100.00;98530.53;4954200;28;20497;-72
2023/03/23 03:37:50;;;;;;;0.00;0.00;;;;;;;6.95;100.00;98522.09;4976975;28;20495;-71
2023/03/23 03:40:18;;;;;;;0.00;0.00;;;;;;;6.88;100.00;98510.75;4961420;28;20036;-71
2023/03/23 03:42:45;;;;;;;0.08;0.08;;;;;;;6.92;100.00;98527.28;4965255;28;20030;-73
2023/03/23 03:45:14;;;;;;;0.00;0.00;;;;;;;6.89;100.00;98517.81;4994899;28;20465;-72
2023/03/23 03:47:39;;;;;;;0.00;0.00;;;;;;;6.87;100.00;98520.00;4997365;28;20033;-73
2023/03/23 03:50:06;;;;;;;0.00;0.00;;;;;;;6.85;100.00;98521.38;4978211;28;20040;-73
2023/03/23 03:52:32;;;;;;;0.00;0.00;;;;;;;6.89;100.00;98528.69;4988103;28;20714;-72
2023/03/23 03:54:57;;;;;;;0.00;0.00;;;;;;;6.90;100.00;98529.50;5003617;28;20124;-72
2023/03/23 03:57:23;;;;;;;0.00;0.00;;;;;;;6.92;100.00;98527.28;4980307;28;20068;-73
2023/03/23 03:59:50;;;;;;;0.00;0.00;;;;;;;6.89;100.00;98539.56;4985356;28;20033;-73
2023/03/23 04:02:19;;;;;;;0.00;0.00;;;;;;;6.86;100.00;98533.88;4975118;28;20054;-73
2023/03/23 04:04:46;;;;;;;0.00;0.00;;;;;;;6.77;100.00;98525.53;4957035;28;20045;-72
2023/03/23 04:07:13;;;;;;;0.00;0.00;;;;;;;6.80;100.00;98552.97;4989446;28;20026;-72
2023/03/23 04:09:39;;;;;;;0.00;0.00;;;;;;;6.79;100.00;98551.34;5001791;28;20022;-71
2023/03/23 04:12:05;;;;;;;0.00;0.00;;;;;;;6.81;100.00;98545.59;5005020;28;20052;-73
2023/03/23 04:14:31;;;;;;;0.00;0.00;;;;;;;6.79;100.00;98539.63;4978897;28;20045;-74
2023/03/23 04:16:56;;;;;;;0.00;0.00;;;;;;;6.79;100.00;98553.22;4954197;28;20026;-73
2023/03/23 04:19:23;;;;;;;0.00;0.00;;;;;;;6.85;100.00;98553.97;4972423;28;20049;-72
2023/03/23 04:21:48;;;;;;;0.00;0.00;;;;;;;6.90;100.00;98551.22;5000397;28;20034;-73
2023/03/23 04:24:15;;;;;;;0.00;0.00;;;;;;;6.92;100.00;98559.88;4978747;28;20033;-73
2023/03/23 04:26:41;;;;;;;0.00;0.00;;;;;;;6.95;100.00;98562.03;4975073;28;20042;-77
2023/03/23 04:29:08;;;;;;;0.00;0.00;;;;;;;6.97;100.00;98552.50;4973340;28;20029;-77
2023/03/23 04:31:34;;;;;;;0.00;0.00;;;;;;;7.08;100.00;98544.22;4980500;28;20046;-77
2023/03/23 04:34:01;;;;;;;0.00;0.00;;;;;;;7.21;100.00;98568.00;4976041;28;20384;-76
2023/03/23 04:36:28;;;;;;;0.00;0.00;;;;;;;7.19;100.00;98545.75;4974093;28;20048;-75
2023/03/23 04:38:55;;;;;;;0.00;0.00;;;;;;;7.17;100.00;98539.81;5003738;28;20049;-76
2023/03/23 04:41:21;;;;;;;0.00;0.00;;;;;;;7.13;100.00;98539.56;4983630;28;20366;-77
2023/03/23 04:43:52;;;;;;;0.00;0.00;;;;;;;7.10;100.00;98534.69;4975253;28;20054;-76
2023/03/23 04:46:19;;;;;;;0.00;0.00;;;;;;;7.08;100.00;98536.91;4998516;28;20066;-77
2023/03/23 04:48:45;;;;;;;0.00;0.00;;;;;;;7.11;100.00;98541.75;4984594;28;20109;-77
2023/03/23 04:51:12;;;;;;;0.00;0.00;;;;;;;7.15;100.00;98548.25;4970776;28;20133;-77
2023/03/23 04:53:38;;;;;;;0.00;0.00;;;;;;;7.16;100.00;98546.31;4997033;28;20041;-77
2023/03/23 04:56:03;;;;;;;0.00;0.00;;;;;;;7.22;100.00;98541.66;5000006;28;20423;-79
2023/03/23 04:58:33;;;;;;;0.00;0.00;;;;;;;7.29;100.00;98547.53;4990067;28;20030;-76
2023/03/23 05:01:00;;;;;;;0.00;0.00;;;;;;;7.41;100.00;98538.97;4986297;28;20065;-77
2023/03/23 05:03:26;;;;;;;0.00;0.00;;;;;;;7.49;100.00;98530.97;4987346;28;20117;-77
2023/03/23 05:05:53;;;;;;;0.00;0.00;;;;;;;7.54;100.00;98549.13;5003762;28;20455;-77
2023/03/23 05:08:24;;;;;;;0.00;0.00;;;;;;;7.62;100.00;98534.06;4986795;28;20026;-76
2023/03/23 05:10:55;;;;;;;0.00;0.00;;;;;;;7.61;100.00;98546.88;4975574;28;20034;-76
2023/03/23 05:13:21;;;;;;;0.00;0.00;;;;;;;7.57;100.00;98547.75;4990496;28;20037;-75
2023/03/23 05:15:47;;;;;;;0.00;0.00;;;;;;;7.50;100.00;98539.94;4964893;28;20033;-76
2023/03/23 05:18:14;;;;;;;0.00;0.00;;;;;;;7.51;100.00;98555.94;4968676;28;20369;-76
2023/03/23 05:20:41;;;;;;;0.00;0.00;;;;;;;7.45;100.00;98540.81;4988678;28;20025;-77
2023/03/23 05:23:08;;;;;;;0.00;0.00;;;;;;;7.50;100.00;98537.22;4983392;28;21102;-77
2023/03/23 05:25:39;;;;;;;0.00;0.00;;;;;;;7.62;100.00;98531.34;4967660;28;20029;-76
2023/03/23 05:28:08;;;;;;;0.00;0.00;;;;;;;7.75;100.00;98543.41;4987191;28;20094;-76
2023/03/23 05:30:44;;;;;;;0.00;0.00;;;;;;;7.75;100.00;98527.88;4984845;28;20022;-77
2023/03/23 05:33:09;;;;;;;0.00;0.00;;;;;;;7.81;100.00;98536.78;4990981;28;20029;-76
2023/03/23 05:35:35;;;;;;;0.00;0.00;;;;;;;7.74;100.00;98520.84;4972783;28;20029;-78
2023/03/23 05:38:01;;;;;;;0.00;0.00;;;;;;;7.75;100.00;98541.50;4988716;28;20041;-78
2023/03/23 05:40:27;;;;;;;0.00;0.00;;;;;;;7.77;100.00;98531.16;5007143;28;20021;-78
2023/03/23 05:42:55;;;;;;;0.00;0.00;;;;;;;7.74;100.00;98526.28;4988673;28;20475;-77
2023/03/23 05:45:22;;;;;;;0.00;0.00;;;;;;;7.75;100.00;98527.09;4991334;28;20140;-77
2023/03/23 05:47:48;;;;;;;0.00;0.00;;;;;;;7.77;100.00;98519.44;5003962;28;20497;-78
2023/03/23 05:50:13;;;;;;;0.00;0.00;;;;;;;7.86;100.00;98534.81;4983304;28;20186;-77
2023/03/23 05:52:39;;;;;;;0.00;0.00;;;;;;;7.86;100.00;98523.94;4986955;28;20041;-77
2023/03/23 05:55:07;;;;;;;0.00;0.00;;;;;;;7.85;100.00;98527.75;5003133;28;20021;-77
2023/03/23 05:57:33;;;;;;;0.00;0.00;;;;;;;7.85;100.00;98530.47;4956781;28;20389;-77
2023/03/23 05:59:59;;;;;;;0.00;0.00;;;;;;;7.84;100.00;98547.91;4981377;28;20029;-78
2023/03/23 06:02:28;;;;;;;0.00;0.00;;;;;;;7.85;100.00;98533.19;4967036;28;20092;-78
2023/03/23 06:04:57;;;;;;;0.00;0.00;;;;;;;7.85;100.00;98527.75;4967767;28;20036;-79
2023/03/23 06:07:24;;;;;;;0.00;0.00;;;;;;;7.90;100.00;98523.34;4979677;28;20062;-77
2023/03/23 06:09:52;;;;;;;0.00;0.00;;;;;;;7.83;100.00;98527.25;4975236;28;20026;-78
2023/03/23 06:12:20;;;;;;;0.00;0.00;;;;;;;7.81;100.00;98529.47;4978550;28;20396;-78
2023/03/23 06:14:47;;;;;;;0.00;0.00;;;;;;;7.78;100.00;98527.31;4990511;28;20033;-78
2023/03/23 06:17:17;;;;;;;0.00;0.00;;;;;;;7.81;100.00;98525.91;4989001;28;20505;-77
2023/03/23 06:19:43;;;;;;;0.00;0.00;;;;;;;7.74;100.00;98526.28;4975957;28;21049;-77
2023/03/23 06:22:09;;;;;;;0.00;0.00;;;;;;;7.64;100.00;98523.72;5011706;28;20034;-78
2023/03/23 06:24:34;;;;;;;0.00;0.00;;;;;;;7.61;100.00;98521.59;4992630;28;20383;-79
2023/03/23 06:27:00;;;;;;;0.00;0.00;;;;;;;7.55;100.00;98520.84;5005723;28;20030;-77
2023/03/23 06:29:27;;;;;;;0.00;0.00;;;;;;;7.53;100.00;98514.88;4989100;28;20034;-77
2023/03/23 06:31:59;;;;;;;0.00;0.00;;;;;;;7.54;100.00;98515.69;4992170;28;20050;-78
2023/03/23 06:34:24;;;;;;;0.00;0.00;;;;;;;7.56;100.00;98540.69;4980211;28;20023;-79
2023/03/23 06:36:50;;;;;;;0.00;0.00;;;;;;;7.58;100.00;98544.72;4968644;28;20121;-79
2023/03/23 06:39:15;;;;;;;0.10;0.10;;;;;;;7.55;100.00;98544.50;4989963;28;20041;-80
2023/03/23 06:41:41;;;;;;;0.10;0.10;;;;;;;7.55;100.00;98533.59;4956063;28;20034;-79
2023/03/23 06:44:06;;;;;;;0.00;0.00;;;;;;;7.62;100.00;98534.06;4957713;28;20066;-79
2023/03/23 06:46:32;;;;;;;0.00;0.00;;;;;;;7.62;100.00;98547.66;4957908;28;20021;-77
2023/03/23 06:49:00;;;;;;;0.00;0.00;;;;;;;7.64;100.00;98527.22;4977079;28;20055;-77
2023/03/23 06:51:26;;;;;;;0.00;0.00;;;;;;;7.67;100.00;98529.34;5008115;28;20109;-80
2023/03/23 06:53:51;;;;;;;0.00;0.00;;;;;;;7.70;100.00;98541.56;4962889;28;20510;-81
2023/03/23 06:56:16;;;;;;;0.00;0.00;;;;;;;7.73;100.00;98548.34;4992381;28;20030;-79
2023/03/23 06:58:42;;;;;;;0.00;0.00;;;;;;;7.85;100.00;98554.94;4989445;28;20022;-78
2023/03/23 07:01:09;;;;;;;0.00;0.00;;;;;;;7.95;100.00;98555.94;5003657;28;20025;-79
2023/03/23 07:03:35;;;;;;;0.00;0.00;;;;;;;8.27;100.00;98557.91;5002544;28;20030;-78
2023/03/23 07:06:01;;;;;;;0.00;0.00;;;;;;;8.40;100.00;98545.44;4986491;28;20500;-79
2023/03/23 07:08:27;;;;;;;0.10;0.10;;;;;;;8.41;100.00;98560.69;4981259;28;20133;-80
2023/03/23 07:10:54;;;;;;;0.00;0.00;;;;;;;8.40;100.00;98534.53;4993359;28;20022;-83
2023/03/23 07:13:21;;;;;;;0.00;0.00;;;;;;;8.45;100.00;98547.28;4992067;28;20102;-81
2023/03/23 07:15:46;;;;;;;0.10;0.10;;;;;;;8.51;100.00;98552.38;4976607;28;20034;-79
2023/03/23 07:18:12;;;;;;;0.00;0.00;;;;;;;8.52;100.00;98566.78;4988509;28;20092;-78
2023/03/23 07:20:38;;;;;;;0.00;0.00;;;;;;;8.56;100.00;98584.97;4990840;28;20452;-80
2023/03/23 07:23:05;;;;;;;0.00;0.00;;;;;;;8.60;100.00;98555.22;4986338;28;20037;-78
2023/03/23 07:25:37;;;;;;;0.00;0.00;;;;;;;8.59;100.00;98539.19;4991562;28;20045;-79
2023/03/23 07:28:09;;;;;;;0.00;0.00;;;;;;;8.60;100.00;98557.13;4990341;28;20034;-78
2023/03/23 07:30:35;;;;;;;0.00;0.00;;;;;;;8.73;100.00;98557.16;5005158;28;20022;-75
2023/03/23 07:33:05;;;;;;;0.00;0.00;;;;;;;8.91;100.00;98563.66;5010142;28;20047;-75
2023/03/23 07:35:31;;;;;;;0.00;0.00;;;;;;;9.07;100.00;98577.03;4984275;28;20064;-74
2023/03/23 07:37:57;;;;;;;0.00;0.00;;;;;;;9.07;100.00;98580.53;4982108;28;20030;-75
2023/03/23 07:40:26;;;;;;;0.00;0.00;;;;;;;8.99;100.00;98564.88;4983706;28;20034;-74
2023/03/23 07:42:54;;;;;;;0.00;0.00;;;;;;;8.96;100.00;98564.69;4982405;28;20534;-74
2023/03/23 07:45:21;;;;;;;0.00;0.00;;;;;;;8.91;100.00;98563.66;5003453;28;20046;-76
2023/03/23 07:47:49;;;;;;;0.00;0.00;;;;;;;8.89;100.00;98565.06;4995083;28;20034;-78
2023/03/23 07:50:14;;;;;;;0.00;0.00;;;;;;;8.99;100.00;98564.88;4967953;28;20125;-73
2023/03/23 07:52:41;;;;;;;0.00;0.00;;;;;;;9.18;100.00;98570.25;4999196;28;20109;-73
2023/03/23 07:55:11;;;;;;;0.00;0.00;;;;;;;9.35;100.00;98577.84;5001502;28;20026;-76
2023/03/23 07:57:37;;;;;;;0.00;0.00;;;;;;;9.46;100.00;98566.72;4984668;28;20026;-77
2023/03/23 08:00:11;;;;;;;0.00;0.00;;;;;;;9.52;99.29;98560.88;4987678;28;20018;-75
2023/03/23 08:02:36;;;;;;;0.00;0.00;;;;;;;9.79;98.53;98570.13;4970592;28;20038;-76
2023/03/23 08:05:02;;;;;;;0.00;0.00;;;;;;;10.17;97.39;98591.66;4976223;28;20165;-75
2023/03/23 08:07:27;;;;;;;0.00;0.00;;;;;;;10.31;92.62;98559.66;4974600;28;20057;-76
2023/03/23 08:09:53;;;;;;;0.00;0.00;;;;;;;10.21;93.48;98581.75;4983241;28;20026;-76
2023/03/23 08:12:21;;;;;;;0.00;0.00;;;;;;;10.01;93.28;98571.28;4979860;28;20041;-77
2023/03/23 08:14:47;;;;;;;0.00;0.00;;;;;;;10.04;92.90;98576.13;5003128;28;20076;-77
2023/03/23 08:17:16;;;;;;;0.00;0.00;;;;;;;10.30;92.43;98603.69;4970167;28;20033;-77
2023/03/23 08:19:52;;;;;;;0.00;0.00;;;;;;;10.57;89.52;98580.94;4999727;28;20034;-80
2023/03/23 08:22:35;;;;;;;;;;;;;;;;;;;;;
2023/03/23 08:25:31;;;;;;;0.00;0.00;;;;;;;10.13;92.68;98602.41;4985335;28;20028;-78
2023/03/23 08:28:35;;;;;;;;;;;;;;;;;;;;;
2023/03/23 08:31:17;;;;;;;0.00;0.00;;;;;;;9.65;99.41;98585.69;5001717;28;20022;-80
2023/03/23 08:34:13;;;;;;;0.00;0.00;;;;;;;9.32;100.00;98574.91;4997839;28;20072;-79
2023/03/23 08:36:57;;;;;;;;;;;;;;;;;;;;;
2023/03/23 08:40:20;;;;;;;;;;;;;;;;;;;;;
2023/03/23 08:43:02;;;;;;;;;;;;;;;;;;;;;
2023/03/23 08:45:31;;;;;;;0.00;0.00;;;;;;;9.35;100.00;98566.13;4992068;28;20057;-77
2023/03/23 08:48:38;;;;;;;0.00;0.00;;;;;;;9.46;100.00;98567.50;4985751;28;20487;-77
2023/03/23 08:51:11;;;;;;;0.00;0.00;;;;;;;9.42;100.00;98553.69;5001163;28;20033;-78
2023/03/23 08:56:50;;;;;;;0.03;0.03;;;;;;;9.32;100.00;98547.63;4996443;28;20096;-77
2023/03/23 09:00:25;;;;;;;;;;;;;;;;;;;;;
2023/03/23 09:02:42;;;;;;;0.00;0.00;;;;;;;11.92;100.00;98575.38;4976972;28;20098;-79
2023/03/23 09:05:17;;;;;;;0.00;0.00;;;;;;;13.26;93.93;98574.59;4994011;28;20029;-77
2023/03/23 09:07:59;;;;;;;0.00;0.00;;;;;;;12.66;89.87;98557.16;4995625;28;20033;-76
2023/03/23 09:10:38;;;;;;;0.00;0.00;;;;;;;14.70;84.85;98549.88;4987692;28;20037;-76
2023/03/23 09:13:27;;;;;;;0.00;0.00;;;;;;;15.45;76.94;98548.03;4982495;28;20076;-77
2023/03/23 09:16:18;;;;;;;0.10;0.10;;;;;;;14.28;75.30;98589.22;5008571;28;20037;-77
2023/03/23 09:18:53;;;;;;;0.00;0.00;;;;;;;12.63;82.98;98588.81;4990406;28;20028;-76
2023/03/23 09:21:26;;;;;;;0.00;0.00;;;;;;;11.58;90.48;98564.03;5001679;28;20026;-78
2023/03/23 09:31:44;;;;;;;0.00;0.00;;;;;;;9.84;100.00;98561.84;4929579;29;20063;-77
2023/03/23 09:34:17;;;;;;;;;;;;;;;9.95;100.00;98585.03;4922478;28;20089;-79
2023/03/23 09:37:16;;;;;;;;;;;;;;;;;;;;;
2023/03/23 09:39:42;;;;;;;0.00;0.00;;;;;;;10.19;100.00;98551.22;4992817;28;20038;-76
2023/03/23 09:42:54;;;;;;;;;;;;;;;;;;;;;
2023/03/23 09:49:43;;;;;;;0.00;0.00;;;;;;;9.93;100.00;98537.34;5006118;28;20731;-77
2023/03/23 10:06:04;;;;;;;0.00;0.00;;;;;;;10.88;100.00;98555.56;4969115;28;20159;-78
2023/03/23 10:47:00;;;;;;;;;;;;;;;;;;;;;
2023/03/23 10:49:38;;;;;;;0.08;0.08;;;;;;;10.73;100.00;98613.34;4733708;30;20036;-76
2023/03/23 10:52:26;;;;;;;;;;;;;;;;;;;;;
2023/03/23 10:55:18;;;;;;;0.00;0.00;;;;;;;12.22;97.22;98606.53;5000326;28;20010;-76
2023/03/23 10:58:06;;;;;;;0.00;0.00;;;;;;;11.92;96.29;98616.47;5002511;28;20053;-78
2023/03/23 11:01:14;;;;;;;;;;;;;;;;;;;;;
2023/03/23 11:03:48;;;;;;;0.00;0.00;;;;;;;11.43;100.00;98614.53;5000144;28;20048;-78
2023/03/23 11:06:45;;;;;;;;;;;;;;;;;;;;;
2023/03/23 11:09:17;;;;;;;0.00;0.00;;;;;;;11.79;95.09;98599.03;5008454;28;20024;-77
2023/03/23 11:12:09;;;;;;;;;;;;;;;;;;;;;
2023/03/23 11:15:09;;;;;;;;;;;;;;;;;;;;;
2023/03/23 11:20:39;;;;;;;0.00;0.00;;;;;;;15.76;78.51;98616.34;4999700;28;20042;-77
2023/03/23 11:23:39;;;;;;;0.00;0.00;;;;;;;18.80;65.44;98631.38;4981138;28;20033;-77
2023/03/23 11:26:53;;;;;;;;;;;;;;;;;;;;;
2023/03/23 11:29:25;;;;;;;0.00;0.00;;;;;;;20.79;60.82;98607.66;4996874;28;20114;-77
2023/03/23 11:32:07;;;;;;;0.00;0.00;;;;;;;21.39;53.59;98613.06;5003376;28;20029;-76
2023/03/23 11:34:48;;;;;;;0.00;0.00;;;;;;;21.16;54.38;98584.59;4990132;28;20028;-77
2023/03/23 11:37:36;;;;;;;0.00;0.00;;;;;;;20.23;54.48;98601.75;4971834;28;20030;-78
2023/03/23 11:40:10;;;;;;;0.00;0.00;;;;;;;19.89;53.86;98601.69;5001531;28;20069;-78
2023/03/23 11:42:44;;;;;;;0.00;0.00;;;;;;;19.91;55.00;98615.97;4983891;28;20058;-78
2023/03/23 11:45:26;;;;;;;;;;;;;;;;;;;;;
2023/03/23 11:48:03;;;;;;;0.00;0.00;;;;;;;19.95;51.33;98593.84;4993091;28;20258;-77
2023/03/23 11:51:07;;;;;;;0.00;0.00;;;;;;;18.58;52.82;98611.56;4982605;28;20247;-79
2023/03/23 12:00:45;;;;;;;0.00;0.00;;;;;;;15.52;61.98;98576.63;4997621;28;20033;-77
2023/03/23 12:04:00;;;;;;;;;;;;;;;;;;;;;
2023/03/23 12:06:53;;;;;;;0.00;0.00;;;;;;;15.87;61.25;98575.38;4994090;28;20620;-77
2023/03/23 12:10:01;;;;;;;0.03;0.03;;;;;;;16.66;59.33;98601.72;4982581;28;20069;-76
2023/03/23 12:13:14;;;;;;;0.00;0.00;;;;;;;18.75;54.81;98584.59;4972461;28;20058;-76
2023/03/23 12:16:34;;;;;;;0.00;0.00;;;;;;;19.95;51.34;98593.84;4946955;29;20034;-77
2023/03/23 12:19:20;;;;;;;0.00;0.00;;;;;;;20.39;49.22;98579.38;4987426;28;20369;-76
2023/03/23 12:25:33;;;;;;;0.00;0.00;;;;;;;18.59;52.61;98571.66;4987734;28;20044;-77
2023/03/23 12:28:55;;;;;;;;;;;;;;;;;;;;;
2023/03/23 12:32:09;;;;;;;0.00;0.00;;;;;;;16.64;56.38;98581.94;4997388;28;20022;-77
2023/03/23 12:35:30;;;;;;;0.00;0.00;;;;;;;15.92;59.80;98574.34;4999097;28;20431;-77
2023/03/23 12:38:36;;;;;;;0.00;0.00;;;;;;;15.24;62.14;98567.44;4938765;28;20033;-77
2023/03/23 12:41:07;;;;;;;0.00;0.00;;;;;;;14.58;65.20;98552.56;4910045;29;20071;-77
2023/03/23 12:43:50;;;;;;;0.00;0.00;;;;;;;14.25;65.62;98575.31;4906981;29;20039;-77
2023/03/23 12:46:44;;;;;;;0.00;0.00;;;;;;;13.73;67.32;98591.03;4933292;28;20038;-76
2023/03/23 12:49:19;;;;;;;0.00;0.00;;;;;;;13.40;69.09;98577.97;4962226;28;20089;-75
2023/03/23 12:51:51;;;;;;;0.00;0.00;;;;;;;13.29;71.31;98598.66;4977717;28;20480;-78
2023/03/23 12:54:34;;;;;;;0.00;0.00;;;;;;;12.53;78.64;98575.44;4966760;28;20400;-75
2023/03/23 12:57:07;;;;;;;0.00;0.00;;;;;;;12.10;83.38;98551.56;4970051;28;20026;-77
2023/03/23 12:59:42;;;;;;;0.10;0.10;;;;;;;12.25;83.03;98548.38;4986235;28;20086;-77
2023/03/23 13:02:14;;;;;;;0.00;0.00;;;;;;;12.20;82.49;98560.25;4977755;28;20088;-78
2023/03/23 13:04:49;;;;;;;0.00;0.00;;;;;;;12.00;82.50;98542.56;4965163;28;20114;-76
2023/03/23 13:07:21;;;;;;;0.00;0.00;;;;;;;11.78;84.49;98564.56;4987885;28;20045;-76
2023/03/23 13:10:03;;;;;;;0.00;0.00;;;;;;;11.34;91.05;98562.50;4978947;28;20033;-76
2023/03/23 13:12:30;;;;;;;0.00;0.00;;;;;;;11.06;97.46;98544.69;4982212;28;20018;-77
2023/03/23 13:15:11;;;;;;;0.00;0.00;;;;;;;11.12;100.00;98576.25;4966277;28;20038;-77
2023/03/23 13:17:58;;;;;;;0.00;0.00;;;;;;;11.32;99.16;98545.59;4970498;28;20479;-78
2023/03/23 13:20:42;;;;;;;0.10;0.10;;;;;;;11.51;97.40;98528.09;4959573;28;20402;-77
2023/03/23 13:23:28;;;;;;;0.00;0.00;;;;;;;11.62;93.77;98539.56;4966013;28;21882;-76
2023/03/23 13:26:03;;;;;;;0.00;0.00;;;;;;;11.69;94.14;98529.72;4969579;28;20049;-76
2023/03/23 13:28:48;;;;;;;0.00;0.00;;;;;;;11.59;92.35;98524.56;4963649;28;20030;-77
2023/03/23 13:31:26;;;;;;;0.00;0.00;;;;;;;11.53;92.34;98521.19;4978841;28;20425;-76
2023/03/23 13:33:59;;;;;;;0.00;0.00;;;;;;;11.38;90.33;98512.63;4963692;28;20026;-76
2023/03/23 13:36:33;;;;;;;0.00;0.00;;;;;;;11.33;91.44;98544.47;4970575;28;20468;-76
2023/03/23 13:39:01;;;;;;;;;;;;;;;11.06;95.51;98512.66;4966759;28;20533;-76
2023/03/23 13:41:27;;;;;;;0.00;0.00;;;;;;;10.72;99.45;98503.19;4986701;28;19980;-78
2023/03/23 13:44:14;;;;;;;0.00;0.00;;;;;;;10.60;100.00;98517.44;4982589;28;20130;-76
2023/03/23 13:46:40;;;;;;;0.00;0.00;;;;;;;10.41;100.00;98525.84;4977413;28;20046;-77
2023/03/23 13:49:22;;;;;;;0.00;0.00;;;;;;;10.14;100.00;98499.44;4970194;28;20030;-77
2023/03/23 13:53:11;;;;;;;0.00;0.00;;;;;;;10.13;100.00;98519.66;4973428;28;20018;-77